createdAt,value
2018-12-11T00:01:53.726Z,2.90
2018-12-11T00:06:58.746Z,2.85
2018-12-11T00:12:03.634Z,2.67
2018-12-11T00:17:08.753Z,1.50
2018-12-11T00:22:13.685Z,1.98
2018-12-11T00:27:18.623Z,2.37
2018-12-11T00:32:23.523Z,2.75
2018-12-11T00:37:28.084Z,1.62
2018-12-11T00:42:32.914Z,1.90
2018-12-11T00:47:37.607Z,1.95
2018-12-11T00:52:42.704Z,2.25
2018-12-11T00:57:47.284Z,2.12
2018-12-11T01:02:52.733Z,1.95
2018-12-11T01:07:57.022Z,1.20
2018-12-11T01:13:02.793Z,1.30
2018-12-11T01:18:07.596Z,2.72
2018-12-11T01:23:12.645Z,1.47
2018-12-11T01:28:17.404Z,1.50
2018-12-11T01:33:22.864Z,1.98
2018-12-11T01:38:27.644Z,2.58
2018-12-11T01:43:32.693Z,1.87
2018-12-11T01:48:38.104Z,1.60
2018-12-11T01:53:42.993Z,1.62
2018-12-11T01:58:47.592Z,1.30
2018-12-11T02:03:52.425Z,1.87
2018-12-11T02:08:57.657Z,1.25
2018-12-11T02:14:02.225Z,2.30
2018-12-11T02:19:08.004Z,1.65
2018-12-11T02:24:12.733Z,2.05
2018-12-11T02:29:17.266Z,1.75
2018-12-11T02:34:22.648Z,1.22
2018-12-11T02:39:27.914Z,1.95
2018-12-11T02:44:32.566Z,0.93
2018-12-11T02:49:37.572Z,1.25
2018-12-11T02:54:42.060Z,1.25
2018-12-11T02:59:47.311Z,0.95
2018-12-11T03:04:52.137Z,1.05
2018-12-11T03:09:56.526Z,1.12
2018-12-11T03:15:02.047Z,1.07
2018-12-11T03:20:07.106Z,1.22
2018-12-11T03:25:11.837Z,1.10
2018-12-11T03:30:16.632Z,1.32
2018-12-11T03:35:22.099Z,0.90
2018-12-11T03:40:27.277Z,0.98
2018-12-11T03:45:31.936Z,1.20
2018-12-11T03:50:36.505Z,1.10
2018-12-11T03:55:41.854Z,1.00
2018-12-11T04:00:47.100Z,1.82
2018-12-11T04:05:52.498Z,1.12
2018-12-11T04:10:57.205Z,1.02
2018-12-11T04:16:02.244Z,0.70
2018-12-11T04:21:07.494Z,1.70
2018-12-11T04:26:12.555Z,0.72
2018-12-11T04:31:17.942Z,0.80
2018-12-11T04:36:22.534Z,1.00
2018-12-11T04:41:27.586Z,0.70
2018-12-11T04:46:32.536Z,0.98
2018-12-11T04:51:37.389Z,0.80
2018-12-11T04:56:42.225Z,1.45
2018-12-11T05:01:46.854Z,0.72
2018-12-11T05:06:51.505Z,0.70
2018-12-11T05:11:57.004Z,1.10
2018-12-11T05:17:02.394Z,0.90
2018-12-11T05:22:07.626Z,0.70
2018-12-11T05:27:12.495Z,0.93
2018-12-11T05:32:18.065Z,0.90
2018-12-11T05:37:23.124Z,1.02
2018-12-11T05:42:29.254Z,1.10
2018-12-11T05:47:34.514Z,0.70
2018-12-11T05:52:39.386Z,0.95
2018-12-11T05:57:44.267Z,1.00
2018-12-11T06:02:49.566Z,0.95
2018-12-11T06:07:54.466Z,0.93
2018-12-11T06:12:59.574Z,0.98
2018-12-11T06:18:04.218Z,0.80
2018-12-11T06:23:08.995Z,0.65
2018-12-11T06:28:14.234Z,1.05
2018-12-11T06:33:19.154Z,1.52
2018-12-11T06:38:23.681Z,0.78
2018-12-11T06:43:28.615Z,1.37
2018-12-11T06:48:33.753Z,1.07
2018-12-11T06:53:38.642Z,0.98
2018-12-11T06:58:43.983Z,14.60
2018-12-11T07:03:49.263Z,8.18
2018-12-11T07:08:53.913Z,23.00
2018-12-11T07:13:58.593Z,12.30
2018-12-11T07:19:03.393Z,9.65
2018-12-11T07:24:08.393Z,9.13
2018-12-11T07:29:13.533Z,7.78
2018-12-11T07:34:18.312Z,7.10
2018-12-11T07:39:23.671Z,7.70
2018-12-11T07:44:28.573Z,6.53
2018-12-11T07:49:33.712Z,8.55
2018-12-11T07:54:38.722Z,4.15
2018-12-11T07:59:43.762Z,10.58
2018-12-11T08:04:48.353Z,6.90
2018-12-11T08:09:52.892Z,5.00
2018-12-11T08:14:57.612Z,18.48
2018-12-11T08:20:02.593Z,30.45
2018-12-11T08:25:07.565Z,14.78
2018-12-11T08:30:12.703Z,14.95
2018-12-11T08:35:17.761Z,15.55
2018-12-11T08:40:22.871Z,19.45
2018-12-11T08:45:28.084Z,20.65
2018-12-11T08:50:32.872Z,14.58
2018-12-11T08:55:39.151Z,17.65
2018-12-11T09:00:44.264Z,15.10
2018-12-11T09:05:48.723Z,15.05
2018-12-11T09:10:53.572Z,19.45
2018-12-11T09:15:58.824Z,17.57
2018-12-11T09:21:03.965Z,13.70
2018-12-11T09:26:09.136Z,13.70
2018-12-11T09:31:13.934Z,13.00
2018-12-11T09:36:18.831Z,15.60
2018-12-11T09:41:24.102Z,12.58
2018-12-11T09:46:28.802Z,13.90
2018-12-11T09:51:34.982Z,11.53
2018-12-11T09:56:40.032Z,10.78
2018-12-11T10:01:44.892Z,11.55
2018-12-11T10:06:49.624Z,12.45
2018-12-11T10:11:54.681Z,8.30
2018-12-11T10:16:59.833Z,9.03
2018-12-11T10:22:04.804Z,9.63
2018-12-11T10:27:09.833Z,11.08
2018-12-11T10:32:14.544Z,12.20
2018-12-11T10:37:19.422Z,4.25
2018-12-11T10:42:24.126Z,7.08
2018-12-11T10:47:29.162Z,5.00
2018-12-11T10:52:34.322Z,4.20
2018-12-11T10:57:39.353Z,4.40
2018-12-11T11:03:01.624Z,5.72
2018-12-11T11:08:06.232Z,7.22
2018-12-11T11:13:11.840Z,5.97
2018-12-11T11:18:16.992Z,5.47
2018-12-11T11:23:21.534Z,8.48
2018-12-11T11:28:26.125Z,6.08
2018-12-11T11:33:30.734Z,7.35
2018-12-11T11:38:35.392Z,4.70
2018-12-11T11:43:40.383Z,6.22
2018-12-11T11:48:45.263Z,5.55
2018-12-11T11:53:50.115Z,8.65
2018-12-11T11:58:54.883Z,5.47
2018-12-11T12:04:00.185Z,7.60
2018-12-11T12:09:05.523Z,6.20
2018-12-11T12:14:10.594Z,8.53
2018-12-11T12:19:15.484Z,8.90
2018-12-11T12:24:20.874Z,7.33
2018-12-11T12:29:25.986Z,8.20
2018-12-11T12:34:30.813Z,10.32
2018-12-11T12:39:35.325Z,6.10
2018-12-11T12:44:40.061Z,8.53
2018-12-11T12:49:50.401Z,7.10
2018-12-11T12:54:49.813Z,6.70
2018-12-11T12:59:55.175Z,6.08
2018-12-11T13:05:00.093Z,6.87
2018-12-11T13:10:05.735Z,6.58
2018-12-11T13:15:10.883Z,4.83
2018-12-11T13:20:17.313Z,9.53
2018-12-11T13:25:22.116Z,6.05
2018-12-11T13:30:27.163Z,5.55
2018-12-11T13:35:31.722Z,5.70
2018-12-11T13:40:36.353Z,9.30
2018-12-11T13:45:41.622Z,6.42
2018-12-11T13:50:46.582Z,8.55
2018-12-11T13:55:51.252Z,12.58
2018-12-11T14:00:56.482Z,5.10
2018-12-11T14:06:01.342Z,5.53
2018-12-11T14:11:06.733Z,5.55
2018-12-11T14:16:11.322Z,7.42
2018-12-11T14:21:16.093Z,7.60
2018-12-11T14:26:21.122Z,6.58
2018-12-11T14:31:26.102Z,5.80
2018-12-11T14:36:30.823Z,4.47
2018-12-11T14:41:36.014Z,8.23
2018-12-11T14:46:41.142Z,8.55
2018-12-11T14:51:45.932Z,3.75
2018-12-11T14:56:50.462Z,4.62
2018-12-11T15:01:55.803Z,5.37
2018-12-11T15:07:00.830Z,4.00
2018-12-11T15:12:05.823Z,6.08
2018-12-11T15:17:11.053Z,5.87
2018-12-11T15:22:16.421Z,4.67
2018-12-11T15:27:20.952Z,6.55
2018-12-11T15:32:25.823Z,10.43
2018-12-11T15:37:30.728Z,7.35
2018-12-11T15:42:35.973Z,7.22
2018-12-11T15:47:40.993Z,5.50
2018-12-11T15:52:46.383Z,8.58
2018-12-11T15:57:50.857Z,7.42
2018-12-11T16:02:55.871Z,10.28
2018-12-11T16:08:01.042Z,9.45
2018-12-11T16:13:05.722Z,6.58
2018-12-11T16:18:10.821Z,7.92
2018-12-11T16:23:15.543Z,6.62
2018-12-11T16:28:20.081Z,7.80
2018-12-11T16:33:25.362Z,7.17
2018-12-11T16:38:30.285Z,6.35
2018-12-11T16:43:34.902Z,4.62
2018-12-11T16:48:40.072Z,5.42
2018-12-11T16:53:44.752Z,6.75
2018-12-11T16:58:49.953Z,4.87
2018-12-11T17:03:54.292Z,4.17
2018-12-11T17:08:59.143Z,7.65
2018-12-11T17:14:03.684Z,4.70
2018-12-11T17:19:08.583Z,5.62
2018-12-11T17:24:13.434Z,3.27
2018-12-11T17:29:23.994Z,4.00
2018-12-11T17:34:23.656Z,4.00
2018-12-11T17:39:28.223Z,3.12
2018-12-11T17:44:32.705Z,3.40
2018-12-11T17:49:37.634Z,3.85
2018-12-11T17:54:42.245Z,3.52
2018-12-11T17:59:47.504Z,6.58
2018-12-11T18:04:51.995Z,4.00
2018-12-11T18:09:56.599Z,9.83
2018-12-11T18:15:01.478Z,19.85
2018-12-11T18:20:07.204Z,22.62
2018-12-11T18:25:12.170Z,16.75
2018-12-11T18:30:17.066Z,14.38
2018-12-11T18:35:22.144Z,7.80
2018-12-11T18:40:27.144Z,11.12
2018-12-11T18:45:31.952Z,8.23
2018-12-11T18:50:36.834Z,11.78
2018-12-11T18:55:41.346Z,9.53
2018-12-11T19:00:47.262Z,10.40
2018-12-11T19:05:53.413Z,12.18
2018-12-11T19:11:04.194Z,8.50
2018-12-11T19:16:09.973Z,5.33
2018-12-11T19:21:18.003Z,9.33
2018-12-11T19:26:23.579Z,6.95
2018-12-11T19:31:28.417Z,3.58
2018-12-11T19:36:32.998Z,6.47
2018-12-11T19:41:38.271Z,6.70
2018-12-11T19:46:43.368Z,4.25
2018-12-11T19:51:48.110Z,7.87
2018-12-11T19:56:53.211Z,4.50
2018-12-11T20:01:57.808Z,8.93
2018-12-11T20:07:04.638Z,3.90
2018-12-11T20:12:09.608Z,3.98
2018-12-11T20:17:15.080Z,3.67
2018-12-11T20:22:20.587Z,6.75
2018-12-11T20:27:27.167Z,5.45
2018-12-11T20:32:35.371Z,5.97
2018-12-11T20:37:43.695Z,6.70
2018-12-11T20:42:51.356Z,5.53
2018-12-11T20:47:59.327Z,4.15
2018-12-11T20:53:06.987Z,4.60
2018-12-11T20:58:13.496Z,3.77
2018-12-11T21:03:19.486Z,4.30
2018-12-11T21:08:27.496Z,4.20
2018-12-11T21:13:34.151Z,6.97
2018-12-11T21:18:39.786Z,5.40
2018-12-11T21:23:44.901Z,3.75
2018-12-11T21:28:50.976Z,6.72
2018-12-11T21:33:56.207Z,6.25
2018-12-11T21:39:07.415Z,2.55
2018-12-11T21:44:23.962Z,3.67
2018-12-11T21:49:31.133Z,5.80
2018-12-11T21:54:39.390Z,4.55
2018-12-11T21:59:45.004Z,3.37
2018-12-11T22:04:50.986Z,3.27
2018-12-11T22:09:55.965Z,3.75
2018-12-11T22:15:00.978Z,2.92
2018-12-11T22:20:06.803Z,4.83
2018-12-11T22:25:12.526Z,2.65
2018-12-11T22:30:17.645Z,4.28
2018-12-11T22:35:22.514Z,4.55
2018-12-11T22:40:27.569Z,4.08
2018-12-11T22:45:33.126Z,2.55
2018-12-11T22:50:37.905Z,2.70
2018-12-11T22:55:42.992Z,4.17
2018-12-11T23:00:47.846Z,3.02
2018-12-11T23:05:52.612Z,2.87
2018-12-11T23:10:56.927Z,5.08
2018-12-11T23:16:02.062Z,3.37
2018-12-11T23:21:07.352Z,6.83
2018-12-11T23:26:12.384Z,5.92
2018-12-11T23:31:17.033Z,3.75
2018-12-11T23:36:22.253Z,4.22
2018-12-11T23:41:27.253Z,2.90
2018-12-11T23:46:32.373Z,4.97
2018-12-11T23:51:37.804Z,3.77
2018-12-11T23:56:42.813Z,5.90
